Main page
METAR-TAF:

METAR-TAF

Airports :

Girona–Costa Brava Airport

Girona, Spain

latitude: 41-54N, longitude: 002-46E, elevation: 143 m

Current weather observation

The report was made 42 minutes ago, at 03:30 UTC
Calm wind
Temperature 18°C
Humidity 77%
Pressure 1017 hPa
Visibility 10 km or more
Scattered clouds at a height of 5500 ft

METAR: LEGE 200330Z 00000KT 9999 SCT055 18/14 Q1017

Time: 06:12 (04:12 UTC)

Forecast

The report was made 5 hours and 12 minutes ago, at 23:00 UTC
Forecast valid from 20 at 00 UTC to 20 at 24 UTC
Wind 4 kt from variable directions
Visibility 10 km or more
Scattered clouds at a height of 4000 ft
Becoming
from 20 at 08 UTC to 20 at 10 UTC
Wind 10 kt from the Northeast
Temporary
from 20 at 10 UTC to 20 at 19 UTC
Wind 15 kt from the Northeast with gusts up to 25 kt

TAF: LEGE 192300Z 2000/2024 VRB04KT 9999 SCT040 TX31/2013Z TN19/2006Z BECMG 2008/2010 04010KT TEMPO 2010/2019 04015G25KT

Weather observations and forecasts of more than 4000 airports (METAR and TAF reports).

The available stations are represented by yellow and red dots on the map.

Hover mouse over dot to see the name of the station.

Then click to see weather observations and forecasts.

To change the map : click on the green buttons with a black cross to zoom in, on the green button with a dash to zoom out, or on the green arrows for adjacent maps.


METAR-TAF: